Time;durP1;ratioP1;P1;durP2;ratioP2;P2;SDS_P1;SDS_P2;PMS_P1;PMS_P2;Temp;Humidity;BMP_temperature;BMP_pressure;BME280_temperature;BME280_humidity;BME280_pressure;Samples;Min_cycle;Max_cycle;Signal;HPM_P1;HPM_P2
2022/03/15 00:00:51;;;;;;;;;;;;;;;5.70;73.32;102752.59;4932563;29;19961;-81
2022/03/15 00:03:19;;;;;;;;;;;;;;;5.69;73.33;102766.59;4898466;29;20344;-81
2022/03/15 00:05:45;;;;;;;;;;;;;;;5.67;73.81;102762.16;4916703;29;20013;-82
2022/03/15 00:08:10;;;;;;;;;;;;;;;5.65;73.53;102766.47;4931826;29;20399;-82
2022/03/15 00:10:36;;;;;;;;;;;;;;;5.62;73.16;102759.38;4903571;29;19923;-82
2022/03/15 00:13:02;;;;;;;;;;;;;;;5.59;73.08;102751.41;4904023;29;19938;-82
2022/03/15 00:15:27;;;;;;;;;;;;;;;5.58;73.33;102752.25;4902981;29;19918;-82
2022/03/15 00:17:53;;;;;;;;;;;;;;;5.56;73.77;102743.41;4906230;29;19939;-82
2022/03/15 00:20:21;;;;;;;;;;;;;;;5.53;73.25;102749.47;4916385;29;19919;-81
2022/03/15 00:22:47;;;;;;;;;;;;;;;5.51;73.48;102747.66;4899659;29;20394;-82
2022/03/15 00:25:17;;;;;;;;;;;;;;;5.48;74.05;102747.56;4931984;29;19914;-82
2022/03/15 00:27:43;;;;;;;;;;;;;;;5.46;73.61;102739.63;4932115;29;20028;-82
2022/03/15 00:30:09;;;;;;;;;;;;;;;5.45;73.38;102744.84;4900325;29;19910;-82
2022/03/15 00:32:35;;;;;;;;;;;;;;;5.44;73.56;102745.69;4897858;29;19926;-82
2022/03/15 00:35:00;;;;;;;;;;;;;;;5.44;73.47;102753.56;4869598;29;19923;-81
2022/03/15 00:37:27;;;;;;;;;;;;;;;5.43;73.37;102741.28;4870019;29;19926;-82
2022/03/15 00:39:52;;;;;;;;;;;;;;;5.44;73.65;102745.69;4919140;29;20200;-82
2022/03/15 00:42:18;;;;;;;;;;;;;;;5.42;73.46;102740.41;4903358;29;20010;-82
2022/03/15 00:44:43;;;;;;;;;;;;;;;5.41;73.10;102743.84;4875757;29;19946;-82
2022/03/15 00:47:10;;;;;;;;;;;;;;;5.38;73.04;102749.91;4906018;29;20290;-81
2022/03/15 00:49:36;;;;;;;;;;;;;;;5.36;73.78;102741.09;4931892;29;20494;-82
2022/03/15 00:52:02;;;;;;;;;;;;;;;5.34;73.80;102740.16;4902839;29;19929;-82
2022/03/15 00:54:28;;;;;;;;;;;;;;;5.35;73.59;102741.06;4905866;29;20002;-82
2022/03/15 00:56:53;;;;;;;;;;;;;;;5.32;73.90;102731.34;4932308;29;20327;-82
2022/03/15 00:59:19;;;;;;;;;;;;;;;5.32;73.82;102733.97;4900667;29;20295;-82
2022/03/15 01:01:45;;;;;;;;;;;;;;;5.31;73.90;102733.91;4916820;29;19914;-82
2022/03/15 01:04:10;;;;;;;;;;;;;;;5.29;73.75;102732.97;4900531;29;19924;-82
2022/03/15 01:06:37;;;;;;;;;;;;;;;5.29;73.94;102732.97;4916142;29;19958;-82
2022/03/15 01:09:06;;;;;;;;;;;;;;;5.30;73.74;102735.66;4916606;29;19914;-82
2022/03/15 01:11:33;;;;;;;;;;;;;;;5.30;73.62;102740.03;4920047;29;19915;-82
2022/03/15 01:13:59;;;;;;;;;;;;;;;5.29;73.77;102733.88;4902235;29;19973;-82
2022/03/15 01:16:24;;;;;;;;;;;;;;;5.30;73.71;102733.03;4903882;29;20062;-82
2022/03/15 01:18:50;;;;;;;;;;;;;;;5.32;74.02;102735.72;4904210;29;19919;-82
2022/03/15 01:21:15;;;;;;;;;;;;;;;5.31;74.19;102734.81;4903791;29;19926;-82
2022/03/15 01:23:41;;;;;;;;;;;;;;;5.33;74.20;102725.22;4904011;29;20394;-82
2022/03/15 01:26:07;;;;;;;;;;;;;;;5.32;74.50;102726.09;4903568;29;19941;-82
2022/03/15 01:28:34;;;;;;;;;;;;;;;5.35;75.20;102728.81;4919276;29;19915;-82
2022/03/15 01:30:59;;;;;;;;;;;;;;;5.34;75.17;102724.41;4935696;29;19922;-82
2022/03/15 01:33:25;;;;;;;;;;;;;;;5.35;74.92;102723.56;4915570;29;20255;-82
2022/03/15 01:35:51;;;;;;;;;;;;;;;5.38;75.17;102728.00;4931726;29;19915;-82
2022/03/15 01:38:16;;;;;;;;;;;;;;;5.39;74.92;102714.94;4947258;28;19919;-82
2022/03/15 01:40:41;;;;;;;;;;;;;;;5.40;74.89;102710.56;4915828;29;20427;-82
2022/03/15 01:43:09;;;;;;;;;;;;;;;5.42;74.92;102708.88;4947302;28;20009;-82
2022/03/15 01:45:39;;;;;;;;;;;;;;;5.43;75.21;102707.13;4904300;29;20001;-82
2022/03/15 01:48:05;;;;;;;;;;;;;;;5.42;74.70;102703.63;4915544;29;20046;-82
2022/03/15 01:50:31;;;;;;;;;;;;;;;5.44;75.07;102701.00;4915712;29;19989;-82
2022/03/15 01:52:56;;;;;;;;;;;;;;;5.42;75.73;102698.34;4899894;29;19915;-82
2022/03/15 01:55:22;;;;;;;;;;;;;;;5.42;75.56;102700.09;4915572;29;20450;-81
2022/03/15 01:57:47;;;;;;;;;;;;;;;5.42;75.43;102693.09;4915219;29;19915;-81
2022/03/15 02:00:14;;;;;;;;;;;;;;;5.42;75.56;102695.72;4915324;29;19930;-81
2022/03/15 02:02:49;;;;;;;;;;;;;;;5.42;75.51;102681.72;4901234;29;20332;-82
2022/03/15 02:05:15;;;;;;;;;;;;;;;5.42;75.36;102685.22;4899403;29;19951;-81
2022/03/15 02:07:40;;;;;;;;;;;;;;;5.41;75.19;102678.16;4915233;29;19922;-82
2022/03/15 02:10:06;;;;;;;;;;;;;;;5.41;74.79;102687.78;4884056;29;19922;-82
2022/03/15 02:12:32;;;;;;;;;;;;;;;5.40;74.39;102692.16;4903360;29;19961;-82
2022/03/15 02:15:01;;;;;;;;;;;;;;;5.39;74.74;102696.53;4902631;29;19927;-82
2022/03/15 02:17:27;;;;;;;;;;;;;;;5.39;75.58;102690.41;4902837;29;20001;-82
2022/03/15 02:19:52;;;;;;;;;;;;;;;5.39;75.18;102690.41;4918548;29;20414;-82
2022/03/15 02:22:19;;;;;;;;;;;;;;;5.39;75.62;102679.88;4917372;29;20379;-82
2022/03/15 02:24:45;;;;;;;;;;;;;;;5.42;75.57;102671.19;4918443;29;19930;-82
2022/03/15 02:27:11;;;;;;;;;;;;;;;5.42;75.35;102665.94;4902575;29;19926;-82
2022/03/15 02:29:36;;;;;;;;;;;;;;;5.43;75.97;102671.22;4902485;29;19965;-82
2022/03/15 02:32:02;;;;;;;;;;;;;;;5.43;75.46;102665.97;4902432;29;19989;-82
2022/03/15 02:34:27;;;;;;;;;;;;;;;5.44;75.73;102665.13;4918153;29;19997;-82
2022/03/15 02:36:53;;;;;;;;;;;;;;;5.45;75.02;102661.66;4918038;29;19918;-82
2022/03/15 02:39:18;;;;;;;;;;;;;;;5.47;75.58;102661.72;4918186;29;19914;-82
2022/03/15 02:41:43;;;;;;;;;;;;;;;5.47;75.53;102656.44;4902316;29;20025;-82
2022/03/15 02:44:09;;;;;;;;;;;;;;;5.47;75.15;102657.34;4898752;29;20311;-82
2022/03/15 02:46:38;;;;;;;;;;;;;;;5.48;75.47;102655.59;4899156;29;19919;-82
2022/03/15 02:49:04;;;;;;;;;;;;;;;5.47;75.33;102649.44;4914745;29;19922;-82
2022/03/15 02:51:30;;;;;;;;;;;;;;;5.47;75.85;102648.56;4914533;29;20010;-82
2022/03/15 02:53:57;;;;;;;;;;;;;;;5.48;75.41;102651.22;4916137;29;20017;-82
2022/03/15 02:56:23;;;;;;;;;;;;;;;5.50;74.90;102651.28;4914714;29;20287;-82
2022/03/15 02:58:48;;;;;;;;;;;;;;;5.50;74.54;102646.91;4898881;29;19983;-82
2022/03/15 03:01:14;;;;;;;;;;;;;;;5.51;74.96;102640.78;4914544;29;19966;-82
2022/03/15 03:03:39;;;;;;;;;;;;;;;5.51;75.31;102632.91;4914643;29;19923;-82
2022/03/15 03:06:05;;;;;;;;;;;;;;;5.51;75.37;102639.91;4898986;29;19919;-82
2022/03/15 03:08:31;;;;;;;;;;;;;;;5.50;75.19;102633.75;4898940;29;19994;-82
2022/03/15 03:11:00;;;;;;;;;;;;;;;5.50;75.91;102628.50;4899053;29;19982;-82
2022/03/15 03:13:26;;;;;;;;;;;;;;;5.51;75.73;102626.75;4928711;29;19918;-82
2022/03/15 03:15:57;;;;;;;;;;;;;;;5.52;75.71;102623.31;4901712;29;19980;-82
2022/03/15 03:18:23;;;;;;;;;;;;;;;5.51;75.81;102624.13;4901422;29;20021;-82
2022/03/15 03:20:53;;;;;;;;;;;;;;;5.52;75.44;102623.31;4901628;29;19915;-82
2022/03/15 03:23:18;;;;;;;;;;;;;;;5.51;75.88;102617.13;4917119;29;19977;-82
2022/03/15 03:25:44;;;;;;;;;;;;;;;5.51;75.60;102611.00;4914227;29;20402;-82
2022/03/15 03:28:12;;;;;;;;;;;;;;;5.50;75.17;102611.84;4913508;29;19915;-82
2022/03/15 03:30:37;;;;;;;;;;;;;;;5.50;75.40;102615.38;4926775;29;20395;-82
2022/03/15 03:33:05;;;;;;;;;;;;;;;5.51;75.26;102605.75;4894783;29;19911;-82
2022/03/15 03:35:31;;;;;;;;;;;;;;;5.50;75.17;102615.38;4894776;29;19942;-82
2022/03/15 03:37:56;;;;;;;;;;;;;;;5.51;75.35;102614.50;4894794;29;19925;-82
2022/03/15 03:40:22;;;;;;;;;;;;;;;5.50;75.34;102611.84;4894836;29;19919;-82
2022/03/15 03:42:47;;;;;;;;;;;;;;;5.47;75.10;102610.03;4889468;29;19911;-82
2022/03/15 03:45:13;;;;;;;;;;;;;;;5.47;75.36;102609.16;4879236;29;19923;-82
2022/03/15 03:47:38;;;;;;;;;;;;;;;5.46;74.87;102612.63;4894869;29;19941;-83
2022/03/15 03:50:08;;;;;;;;;;;;;;;5.45;75.00;102610.84;4904174;29;19911;-82
2022/03/15 03:52:33;;;;;;;;;;;;;;;5.44;75.33;102609.03;4913698;29;19918;-82
2022/03/15 03:54:58;;;;;;;;;;;;;;;5.46;75.09;102609.97;4897674;29;19938;-82
2022/03/15 03:57:24;;;;;;;;;;;;;;;5.45;74.88;102618.72;4881818;29;20394;-82
2022/03/15 03:59:49;;;;;;;;;;;;;;;5.44;74.75;102609.03;4881841;29;20376;-82
2022/03/15 04:02:14;;;;;;;;;;;;;;;5.44;74.92;102611.66;4881327;29;19919;-83
2022/03/15 04:04:40;;;;;;;;;;;;;;;5.42;75.05;102609.03;4913384;29;19915;-82
2022/03/15 04:07:07;;;;;;;;;;;;;;;5.43;75.22;102602.03;4881963;29;19927;-82
2022/03/15 04:09:33;;;;;;;;;;;;;;;5.42;75.16;102608.13;4898095;29;19946;-82
2022/03/15 04:11:59;;;;;;;;;;;;;;;5.41;74.93;102616.84;4880628;29;19965;-82
2022/03/15 04:14:24;;;;;;;;;;;;;;;5.39;74.62;102609.84;4912512;29;19925;-82
2022/03/15 04:16:50;;;;;;;;;;;;;;;5.38;74.50;102610.66;4897537;29;20443;-82
2022/03/15 04:19:15;;;;;;;;;;;;;;;5.38;74.85;102613.28;4914510;29;19923;-82
2022/03/15 04:21:41;;;;;;;;;;;;;;;5.38;74.81;102607.16;4913305;29;19951;-82
2022/03/15 04:24:06;;;;;;;;;;;;;;;5.37;74.66;102603.63;4897641;29;20263;-82
2022/03/15 04:26:31;;;;;;;;;;;;;;;5.36;74.90;102611.47;4912929;29;19985;-82
2022/03/15 04:28:57;;;;;;;;;;;;;;;5.36;75.00;102600.97;4913293;29;19958;-82
2022/03/15 04:31:22;;;;;;;;;;;;;;;5.36;75.05;102608.84;4897401;29;19934;-82
2022/03/15 04:33:48;;;;;;;;;;;;;;;5.34;75.07;102611.44;4897652;29;20394;-82
2022/03/15 04:36:14;;;;;;;;;;;;;;;5.34;75.05;102614.06;4897820;29;19964;-82
2022/03/15 04:38:39;;;;;;;;;;;;;;;5.32;74.63;102607.88;4913441;29;19962;-83
2022/03/15 04:41:05;;;;;;;;;;;;;;;5.32;75.02;102594.75;4897815;29;19919;-82
2022/03/15 04:43:31;;;;;;;;;;;;;;;5.31;74.89;102595.56;4913357;29;19918;-82
2022/03/15 04:45:56;;;;;;;;;;;;;;;5.29;74.58;102592.03;4883812;29;19927;-83
2022/03/15 04:48:21;;;;;;;;;;;;;;;5.28;74.46;102591.97;4882704;29;20292;-82
2022/03/15 04:50:47;;;;;;;;;;;;;;;5.26;74.65;102591.94;4898576;29;19915;-82
2022/03/15 04:53:12;;;;;;;;;;;;;;;5.24;74.64;102603.25;4898264;29;19931;-82
2022/03/15 04:55:38;;;;;;;;;;;;;;;5.22;74.94;102597.03;4882450;29;19958;-82
2022/03/15 04:58:03;;;;;;;;;;;;;;;5.22;74.57;102594.41;4899642;29;19915;-82
2022/03/15 05:00:28;;;;;;;;;;;;;;;5.22;74.86;102594.41;4882480;29;19916;-82
2022/03/15 05:02:54;;;;;;;;;;;;;;;5.21;74.41;102595.28;4898152;29;20382;-82
2022/03/15 05:05:20;;;;;;;;;;;;;;;5.21;75.04;102588.28;4897963;29;19971;-82
2022/03/15 05:07:46;;;;;;;;;;;;;;;5.21;74.26;102588.28;4912860;29;19926;-82
2022/03/15 05:12:56;;;;;;;;;;;;;;;5.20;74.89;102593.50;4914656;29;20001;-82
2022/03/15 05:15:21;;;;;;;;;;;;;;;5.20;74.84;102588.25;4900750;29;20030;-83
2022/03/15 05:17:47;;;;;;;;;;;;;;;5.19;74.83;102579.47;4900606;29;19927;-83
2022/03/15 05:20:21;;;;;;;;;;;;;;;5.20;74.85;102581.25;4916625;29;20418;-82
2022/03/15 05:22:46;;;;;;;;;;;;;;;5.20;74.57;102580.38;4887378;29;20418;-82
2022/03/15 05:25:13;;;;;;;;;;;;;;;5.16;75.19;102579.38;4885073;29;20088;-83
2022/03/15 05:27:39;;;;;;;;;;;;;;;5.15;75.90;102575.00;4916063;29;19919;-83
2022/03/15 05:30:05;;;;;;;;;;;;;;;5.14;75.81;102573.19;4884896;29;19923;-83
2022/03/15 05:32:30;;;;;;;;;;;;;;;5.13;75.88;102579.31;4898180;29;20387;-83
2022/03/15 05:35:02;;;;;;;;;;;;;;;5.12;75.55;102581.06;4903035;29;20018;-82
2022/03/15 05:37:27;;;;;;;;;;;;;;;5.13;75.04;102577.56;4869447;29;19919;-83
2022/03/15 05:39:53;;;;;;;;;;;;;;;5.15;75.25;102575.00;4900417;29;19915;-83
2022/03/15 05:42:18;;;;;;;;;;;;;;;5.15;74.83;102573.25;4874464;29;19919;-82
2022/03/15 05:44:44;;;;;;;;;;;;;;;5.16;75.49;102571.50;4900470;29;20385;-83
2022/03/15 05:47:10;;;;;;;;;;;;;;;5.16;75.72;102572.38;4915956;29;20063;-83
2022/03/15 05:49:35;;;;;;;;;;;;;;;5.17;75.41;102571.56;4900102;29;20041;-83
2022/03/15 05:52:01;;;;;;;;;;;;;;;5.17;75.32;102561.06;4887163;29;20348;-83
2022/03/15 05:54:26;;;;;;;;;;;;;;;5.16;75.18;102566.25;4915667;29;19930;-83
2022/03/15 05:56:52;;;;;;;;;;;;;;;5.17;75.26;102561.06;4898766;29;19945;-83
2022/03/15 05:59:17;;;;;;;;;;;;;;;5.17;75.30;102555.81;4900167;29;19958;-83
2022/03/15 06:01:42;;;;;;;;;;;;;;;5.17;74.99;102557.53;4884214;29;19954;-83
2022/03/15 06:04:10;;;;;;;;;;;;;;;5.17;75.75;102555.81;4889607;29;19923;-83
2022/03/15 06:06:36;;;;;;;;;;;;;;;5.19;75.29;102555.81;4914929;29;19915;-83
2022/03/15 06:09:01;;;;;;;;;;;;;;;5.20;75.69;102554.13;4888531;29;20245;-82
2022/03/15 06:11:27;;;;;;;;;;;;;;;5.20;75.49;102556.75;4901721;29;19915;-83
2022/03/15 06:13:52;;;;;;;;;;;;;;;5.20;75.58;102549.75;4898223;29;19979;-83
2022/03/15 06:16:17;;;;;;;;;;;;;;;5.20;76.69;102547.13;4899092;29;19941;-83
2022/03/15 06:18:43;;;;;;;;;;;;;;;5.20;75.95;102541.88;4897800;29;19922;-83
2022/03/15 06:21:09;;;;;;;;;;;;;;;5.21;76.12;102543.63;4897550;29;20013;-83
2022/03/15 06:23:35;;;;;;;;;;;;;;;5.23;76.62;102543.69;4896860;29;20394;-83
2022/03/15 06:26:00;;;;;;;;;;;;;;;5.23;76.04;102544.56;4915449;29;19922;-83
2022/03/15 06:28:26;;;;;;;;;;;;;;;5.24;75.81;102545.44;4899303;29;19919;-83
2022/03/15 06:30:51;;;;;;;;;;;;;;;5.25;75.84;102548.13;4899987;29;19915;-83
2022/03/15 06:33:17;;;;;;;;;;;;;;;5.27;75.85;102545.56;4899389;29;19965;-83
2022/03/15 06:35:46;;;;;;;;;;;;;;;5.30;75.27;102553.50;4899771;29;19919;-83
2022/03/15 06:38:11;;;;;;;;;;;;;;;5.32;75.66;102544.81;4899347;29;19915;-83
2022/03/15 06:40:40;;;;;;;;;;;;;;;5.32;75.87;102541.31;4914591;29;19922;-83
2022/03/15 06:43:06;;;;;;;;;;;;;;;5.34;75.86;102536.97;4899016;29;19922;-83
2022/03/15 06:45:32;;;;;;;;;;;;;;;5.34;76.17;102524.75;4919094;29;19919;-83
2022/03/15 06:47:58;;;;;;;;;;;;;;;5.36;75.71;102527.41;4883438;29;19942;-83
2022/03/15 06:50:24;;;;;;;;;;;;;;;5.38;75.96;102530.97;4914846;29;20388;-83
2022/03/15 06:52:50;;;;;;;;;;;;;;;5.40;76.04;102529.25;4898352;29;19958;-83
2022/03/15 06:55:16;;;;;;;;;;;;;;;5.43;75.75;102529.34;4883391;29;19923;-83
2022/03/15 06:57:42;;;;;;;;;;;;;;;5.45;75.85;102530.28;4898956;29;20401;-83
2022/03/15 07:00:09;;;;;;;;;;;;;;;5.46;75.80;102525.91;4914709;29;19958;-83
2022/03/15 07:02:34;;;;;;;;;;;;;;;5.47;75.63;102531.22;4915476;29;19967;-82
2022/03/15 07:04:59;;;;;;;;;;;;;;;5.48;75.92;102527.72;4930052;29;20340;-83
2022/03/15 07:07:25;;;;;;;;;;;;;;;5.49;76.54;102525.97;4899132;29;20006;-83
2022/03/15 07:09:52;;;;;;;;;;;;;;;5.51;76.45;102525.16;4916659;29;20363;-83
2022/03/15 07:12:19;;;;;;;;;;;;;;;5.52;75.13;102526.97;4909869;29;20280;-82
2022/03/15 07:14:45;;;;;;;;;;;;;;;5.54;75.98;102527.91;4914352;29;19962;-82
2022/03/15 07:17:11;;;;;;;;;;;;;;;5.57;75.87;102532.34;4898845;29;19979;-82
2022/03/15 07:19:36;;;;;;;;;;;;;;;5.59;75.30;102533.28;4898988;29;19927;-83
2022/03/15 07:22:02;;;;;;;;;;;;;;;5.63;75.54;102536.84;4899345;29;19941;-83
2022/03/15 07:24:27;;;;;;;;;;;;;;;5.65;75.95;102522.91;4899073;29;19966;-83
2022/03/15 07:26:52;;;;;;;;;;;;;;;5.68;75.74;102520.34;4914656;29;19947;-83
2022/03/15 07:29:18;;;;;;;;;;;;;;;5.71;75.25;102519.53;4914578;29;19918;-83
2022/03/15 07:31:44;;;;;;;;;;;;;;;5.73;75.61;102521.34;4926425;29;19979;-82
2022/03/15 07:34:09;;;;;;;;;;;;;;;5.75;75.43;102522.28;4907278;29;20307;-82
2022/03/15 07:36:35;;;;;;;;;;;;;;;5.78;75.71;102513.56;4898630;29;19915;-82
2022/03/15 07:39:02;;;;;;;;;;;;;;;5.80;76.23;102507.50;4877513;29;19927;-82
2022/03/15 07:41:27;;;;;;;;;;;;;;;5.84;75.61;102504.97;4913978;29;20013;-82
2022/03/15 07:43:52;;;;;;;;;;;;;;;5.87;75.76;102505.91;4913919;29;19956;-82
2022/03/15 07:46:18;;;;;;;;;;;;;;;5.89;75.30;102496.34;4915782;29;20299;-82
2022/03/15 07:48:43;;;;;;;;;;;;;;;5.94;75.22;102500.00;4930024;29;19911;-82
2022/03/15 07:51:09;;;;;;;;;;;;;;;5.99;75.53;102501.00;4882936;29;19919;-82
2022/03/15 07:53:34;;;;;;;;;;;;;;;6.03;75.86;102488.78;4898378;29;19926;-82
2022/03/15 07:58:06;;;;;;;15.60;8.25;;;;;;;6.06;77.48;102494.16;5129170;27;20378;-82
2022/03/15 08:00:31;;;;;;;21.05;8.68;;;;;;;6.07;77.92;102498.53;5110129;28;20039;-82
2022/03/15 08:02:57;;;;;;;29.63;8.52;;;;;;;6.12;77.44;102499.53;5110044;28;20406;-82
2022/03/15 08:05:23;;;;;;;15.90;8.48;;;;;;;6.13;77.34;102495.16;5093183;28;20085;-82
2022/03/15 08:07:49;;;;;;;27.17;8.23;;;;;;;6.14;76.97;102495.19;5110000;28;20389;-82
2022/03/15 08:10:15;;;;;;;17.23;7.72;;;;;;;6.16;77.16;102501.38;5093070;28;20031;-82
2022/03/15 08:12:41;;;;;;;27.80;8.13;;;;;;;6.17;76.75;102500.53;5093435;28;20535;-86
2022/03/15 08:15:09;;;;;;;20.23;8.10;;;;;;;6.21;76.67;102504.13;5110508;28;20031;-86
2022/03/15 08:17:35;;;;;;;19.60;8.15;;;;;;;6.23;76.74;102502.41;5110490;28;20111;-86
2022/03/15 08:20:00;;;;;;;22.73;7.95;;;;;;;6.25;76.99;102496.31;5090167;28;20964;-85
2022/03/15 08:22:28;;;;;;;22.55;8.25;;;;;;;6.30;77.30;102492.91;5089965;28;20123;-86
2022/03/15 08:24:55;;;;;;;14.48;7.00;;;;;;;6.32;76.59;102488.56;5073475;28;20130;-85
2022/03/15 08:27:21;;;;;;;22.48;7.57;;;;;;;6.35;76.91;102486.00;5073542;28;20111;-86
2022/03/15 08:29:46;;;;;;;16.75;7.93;;;;;;;6.35;77.18;102478.09;5090186;28;20479;-86
2022/03/15 08:32:12;;;;;;;17.15;7.25;;;;;;;6.42;77.16;102488.78;5090165;28;20074;-85
2022/03/15 08:34:38;;;;;;;17.27;7.85;;;;;;;6.47;77.09;102487.16;5073029;28;20043;-85
2022/03/15 08:37:04;;;;;;;20.67;7.45;;;;;;;6.51;77.34;102479.34;5069831;28;20035;-86
2022/03/15 08:39:30;;;;;;;18.00;7.40;;;;;;;6.53;77.38;102472.34;5069790;28;20038;-86
2022/03/15 08:41:55;;;;;;;21.27;7.97;;;;;;;6.58;76.97;102473.34;5069949;28;20115;-86
2022/03/15 08:44:22;;;;;;;23.25;7.78;;;;;;;6.61;76.78;102470.78;5084694;28;20040;-86
2022/03/15 08:46:49;;;;;;;16.95;7.25;;;;;;;6.66;77.00;102475.28;5069165;28;20236;-86
2022/03/15 08:49:17;;;;;;;14.68;7.03;;;;;;;6.70;76.97;102468.34;5069342;28;20382;-84
2022/03/15 08:51:43;;;;;;;20.48;7.00;;;;;;;6.76;76.97;102471.09;5069512;28;20470;-85
2022/03/15 08:54:09;;;;;;;12.10;6.43;;;;;;;6.80;76.32;102472.03;5069273;28;20036;-85
2022/03/15 08:56:35;;;;;;;15.18;7.10;;;;;;;6.82;76.05;102465.03;5069212;28;20045;-86
2022/03/15 08:59:02;;;;;;;16.15;8.60;;;;;;;6.90;76.32;102468.75;5069476;28;20060;-86
2022/03/15 09:01:27;;;;;;;17.55;7.75;;;;;;;6.94;76.26;102462.66;5069370;28;20404;-86
2022/03/15 09:03:53;;;;;;;13.73;6.70;;;;;;;6.97;76.70;102457.44;5069298;28;20072;-86
2022/03/15 09:06:18;;;;;;;19.38;6.35;;;;;;;7.02;75.67;102458.44;5052690;28;20035;-86
2022/03/15 09:08:46;;;;;;;15.40;6.72;;;;;;;7.06;75.90;102456.72;5059953;28;20067;-86
2022/03/15 09:11:12;;;;;;;13.52;5.82;;;;;;;7.15;75.38;102466.56;5055859;28;20051;-85
2022/03/15 09:13:38;;;;;;;16.05;6.32;;;;;;;7.17;75.36;102457.81;5055375;28;20031;-85
2022/03/15 09:16:05;;;;;;;12.02;5.97;;;;;;;7.22;75.01;102456.16;5059334;28;20047;-85
2022/03/15 09:18:32;;;;;;;21.65;7.32;;;;;;;7.28;75.02;102461.53;5059654;28;20136;-86
2022/03/15 09:20:58;;;;;;;14.43;6.35;;;;;;;7.36;75.98;102460.78;5075881;28;20032;-85
2022/03/15 09:23:23;;;;;;;21.63;7.50;;;;;;;7.44;74.87;102460.06;5075705;28;20023;-85
2022/03/15 09:25:49;;;;;;;18.88;8.05;;;;;;;7.50;74.86;102451.34;5059379;28;20040;-85
2022/03/15 09:28:18;;;;;;;17.52;8.18;;;;;;;7.62;75.37;102455.94;5092477;28;20032;-85
2022/03/15 09:30:45;;;;;;;21.38;8.75;;;;;;;7.65;73.85;102454.25;5092743;28;20038;-85
2022/03/15 09:33:12;;;;;;;25.40;12.52;;;;;;;7.69;73.24;102458.72;5059037;28;20519;-85
2022/03/15 09:35:41;;;;;;;17.85;9.30;;;;;;;7.77;74.33;102461.47;5075939;28;20036;-85
2022/03/15 09:38:08;;;;;;;20.63;6.85;;;;;;;7.83;73.74;102458.91;5075566;28;20112;-85
2022/03/15 09:40:33;;;;;;;19.25;7.75;;;;;;;7.90;74.24;102458.13;5075716;28;20048;-85
2022/03/15 09:43:05;;;;;;;13.82;6.60;;;;;;;7.96;74.37;102449.41;5058845;28;20024;-84
2022/03/15 09:45:35;;;;;;;13.05;5.85;;;;;;;8.05;74.02;102456.59;5093557;28;20054;-84
2022/03/15 09:48:04;;;;;;;19.45;6.90;;;;;;;8.11;73.62;102454.03;5058820;28;20036;-85
2022/03/15 09:50:30;;;;;;;20.33;6.45;;;;;;;8.17;73.93;102441.81;5075366;28;20153;-85
2022/03/15 09:52:59;;;;;;;16.38;6.65;;;;;;;8.22;71.61;102443.66;5075677;28;20066;-85
2022/03/15 09:55:25;;;;;;;14.75;6.70;;;;;;;8.24;71.54;102449.84;5075445;28;20374;-84
2022/03/15 09:57:52;;;;;;;21.92;7.63;;;;;;;8.24;71.65;102450.72;5041608;28;20139;-84
2022/03/15 10:00:18;;;;;;;17.77;6.80;;;;;;;8.28;71.75;102436.66;5091447;28;20301;-84
2022/03/15 10:02:46;;;;;;;18.08;6.57;;;;;;;8.34;72.13;102442.06;5072688;28;20046;-84
2022/03/15 10:05:13;;;;;;;26.17;8.07;;;;;;;8.38;71.75;102441.22;5092749;28;20028;-84
2022/03/15 10:07:40;;;;;;;22.67;8.00;;;;;;;8.47;71.68;102431.69;5074141;28;20062;-84
2022/03/15 10:10:09;;;;;;;18.98;7.13;;;;;;;8.50;70.28;102424.66;5057744;28;20110;-84
2022/03/15 10:12:35;;;;;;;32.05;8.00;;;;;;;8.53;70.38;102427.38;5086723;28;20032;-84
2022/03/15 10:15:18;;;;;;;22.55;6.75;;;;;;;8.60;70.86;102418.66;5048621;28;20040;-84
2022/03/15 10:18:04;;;;;;;15.82;7.60;;;;;;;8.68;70.12;102425.75;5073664;28;20063;-83
2022/03/15 10:20:42;;;;;;;25.83;7.53;;;;;;;8.69;70.21;102415.22;5069400;28;20107;-83
2022/03/15 10:23:10;;;;;;;22.85;7.00;;;;;;;8.80;69.92;102410.94;5037389;28;20047;-83
2022/03/15 10:25:37;;;;;;;38.22;8.85;;;;;;;8.86;70.19;102406.59;5037806;28;20048;-83
2022/03/15 10:28:08;;;;;;;18.88;7.07;;;;;;;8.94;70.13;102412.84;5053707;28;20369;-83
2022/03/15 10:30:34;;;;;;;;;;;;;;;9.01;70.98;102407.63;5056160;28;20039;-83
2022/03/15 10:33:00;;;;;;;12.60;7.10;;;;;;;9.01;68.55;102407.63;5053509;28;19947;-83
2022/03/15 10:35:29;;;;;;;15.45;6.50;;;;;;;9.06;69.57;102402.38;5053379;28;20024;-83
2022/03/15 10:37:55;;;;;;;15.38;7.15;;;;;;;9.12;69.69;102397.13;5069845;28;20135;-82
2022/03/15 10:40:55;;;;;;;18.48;7.47;;;;;;;9.17;69.99;102392.81;5054101;28;20029;-83
2022/03/15 10:43:23;;;;;;;15.82;7.45;;;;;;;9.32;69.71;102401.72;5058622;28;20040;-83
2022/03/15 10:45:57;;;;;;;24.23;7.90;;;;;;;9.39;68.66;102399.13;5071357;28;20372;-82
2022/03/15 10:48:32;;;;;;;14.00;7.20;;;;;;;9.45;68.73;102385.97;5053202;28;20070;-83
2022/03/15 10:51:01;;;;;;;21.23;9.32;;;;;;;9.56;68.92;102385.16;5070096;28;20041;-82
2022/03/15 10:54:00;;;;;;;25.83;9.60;;;;;;;9.58;68.06;102386.94;5069693;28;20052;-82
2022/03/15 10:56:26;;;;;;;24.35;9.27;;;;;;;9.58;67.42;102376.38;5052843;28;20075;-82
2022/03/15 10:59:01;;;;;;;22.92;9.05;;;;;;;9.67;68.63;102386.13;5053488;28;20028;-82
2022/03/15 11:01:34;;;;;;;21.23;8.60;;;;;;;9.71;68.13;102372.03;5053829;28;20139;-82
2022/03/15 11:04:02;;;;;;;17.08;7.32;;;;;;;9.69;66.60;102368.50;5036865;28;20487;-81
2022/03/15 11:06:31;;;;;;;18.45;6.55;;;;;;;9.69;66.87;102372.03;5071411;28;20036;-82
2022/03/15 11:08:58;;;;;;;11.35;6.32;;;;;;;9.67;66.76;102370.28;5036652;28;20043;-82
2022/03/15 11:11:27;;;;;;;13.20;6.18;;;;;;;9.67;66.50;102368.50;5052977;28;20024;-82
2022/03/15 11:14:28;;;;;;;15.95;6.70;;;;;;;9.67;67.59;102365.84;5083939;28;20044;-83
2022/03/15 11:16:55;;;;;;;19.10;7.35;;;;;;;9.64;66.05;102363.19;5070931;28;20055;-82
2022/03/15 11:19:21;;;;;;;20.92;7.80;;;;;;;9.64;67.27;102355.25;5073217;28;20211;-81
2022/03/15 11:21:47;;;;;;;17.92;6.63;;;;;;;9.65;66.88;102340.28;5091414;28;20549;-82
2022/03/15 11:24:21;;;;;;;15.80;7.18;;;;;;;9.66;66.57;102337.63;5089876;28;20047;-82
2022/03/15 11:26:47;;;;;;;16.33;6.47;;;;;;;9.62;66.18;102335.84;5090672;28;20112;-82
2022/03/15 11:29:18;;;;;;;15.73;6.38;;;;;;;9.56;66.33;102338.44;5082320;28;20455;-81
2022/03/15 11:31:44;;;;;;;;;;;;;;;9.57;67.25;102326.09;5091175;28;20032;-82
2022/03/15 11:34:10;;;;;;;10.90;5.30;;;;;;;9.51;67.05;102331.34;5091161;28;19912;-82
2022/03/15 11:36:36;;;;;;;17.85;6.32;;;;;;;9.54;67.03;102331.38;5073544;28;20042;-82
2022/03/15 11:39:01;;;;;;;14.32;6.40;;;;;;;9.54;67.39;102329.59;5056521;28;20031;-82
2022/03/15 11:41:29;;;;;;;13.93;6.65;;;;;;;9.59;67.29;102329.63;5056527;28;20040;-82
2022/03/15 11:44:19;;;;;;;18.73;6.97;;;;;;;9.65;67.81;102327.03;5056507;28;20040;-82
2022/03/15 11:47:14;;;;;;;15.68;6.47;;;;;;;9.68;67.20;102319.13;5091479;28;20200;-82
2022/03/15 11:49:59;;;;;;;16.25;7.30;;;;;;;9.62;67.82;102312.03;5073159;28;20044;-82
2022/03/15 11:52:46;;;;;;;13.38;7.32;;;;;;;9.64;67.33;102318.22;5089810;28;20157;-82
2022/03/15 11:55:34;;;;;;;16.50;7.47;;;;;;;9.66;67.42;102305.88;5073263;28;20055;-82
2022/03/15 11:58:03;;;;;;;16.08;6.78;;;;;;;9.68;67.51;102306.78;5069622;28;20083;-81
2022/03/15 12:00:31;;;;;;;14.05;6.90;;;;;;;9.72;67.98;102298.84;5069835;28;20487;-82
2022/03/15 12:02:59;;;;;;;17.30;6.07;;;;;;;9.74;67.27;102291.81;5069268;28;20036;-82
2022/03/15 12:05:25;;;;;;;17.42;6.70;;;;;;;9.78;66.96;102294.47;5070724;28;20070;-82
2022/03/15 12:08:29;;;;;;;18.23;5.90;;;;;;;9.86;67.66;102290.09;5069428;28;20032;-82
2022/03/15 12:10:57;;;;;;;19.85;7.10;;;;;;;9.98;68.02;102286.63;4985740;28;20585;-81
2022/03/15 12:13:40;;;;;;;16.23;6.10;;;;;;;10.10;67.41;102281.38;4981492;28;20050;-82
2022/03/15 12:16:13;;;;;;;36.90;8.27;;;;;;;10.20;67.20;102277.00;5011766;28;20083;-82
2022/03/15 12:18:44;;;;;;;14.32;6.22;;;;;;;10.26;66.59;102277.03;5045501;28;20032;-82
2022/03/15 12:21:10;;;;;;;16.10;6.03;;;;;;;10.32;66.46;102277.06;5069261;28;20032;-82